Lomas de Zamora, Argentina
Current Conditions -  °F | °C
As of 7:00 AM on Friday 24 Oct 2014 (Local Time) from SAEZ Reporting Station
Haze Haze  
Wind Chill: 68°   Ceiling: 600
Heat Index: 68°   Visibility: 1.8mi
Dew Point: 66°   Wind: 9mph
Humidity: 94%   Direction: 90°E
Pressure: 30"   Gusts: NA
Location:  34.77°S, 58.4°W
Report Text: SAEZ 241000Z 09008KT 3000 BR OVC006 20/19 Q1016
Loading
Personal Weather Stations






























Interactive Weather Map
Tropical Storm Tracking
New forecast layout! Learn more

10-Day Weather Forecast

Advertisements
Track Severe Weather on mobile